sensor_id;sensor_type;location;lat;lon;timestamp;P1;durP1;ratioP1;P2;durP2;ratioP2
78013;SDS011;67222;50.182;8.734;2023-01-28T06:31:01;2.83;;;1.38;;
78013;SDS011;67222;50.182;8.734;2023-01-28T06:33:26;3.10;;;1.40;;
78013;SDS011;67222;50.182;8.734;2023-01-28T06:35:53;2.65;;;1.40;;
78013;SDS011;67222;50.182;8.734;2023-01-28T06:38:19;2.72;;;1.23;;
78013;SDS011;67222;50.182;8.734;2023-01-28T06:40:45;1.97;;;1.13;;
78013;SDS011;67222;50.182;8.734;2023-01-28T06:43:15;3.95;;;1.38;;
78013;SDS011;67222;50.182;8.734;2023-01-28T06:45:40;2.17;;;1.23;;
78013;SDS011;67222;50.182;8.734;2023-01-28T06:48:05;3.13;;;1.43;;
78013;SDS011;67222;50.182;8.734;2023-01-28T06:50:31;3.05;;;1.15;;
78013;SDS011;67222;50.182;8.734;2023-01-28T06:52:56;2.77;;;1.30;;
78013;SDS011;67222;50.182;8.734;2023-01-28T06:55:21;4.57;;;1.87;;
78013;SDS011;67222;50.182;8.734;2023-01-28T06:57:47;4.10;;;1.90;;
78013;SDS011;67222;50.182;8.734;2023-01-28T07:00:12;3.60;;;1.43;;
78013;SDS011;67222;50.182;8.734;2023-01-28T07:02:39;3.20;;;1.48;;
78013;SDS011;67222;50.182;8.734;2023-01-28T07:05:05;3.72;;;1.38;;
78013;SDS011;67222;50.182;8.734;2023-01-28T07:07:31;3.03;;;1.33;;
78013;SDS011;67222;50.182;8.734;2023-01-28T07:09:56;2.53;;;1.20;;
78013;SDS011;67222;50.182;8.734;2023-01-28T07:12:22;3.97;;;1.50;;
78013;SDS011;67222;50.182;8.734;2023-01-28T07:14:47;3.50;;;1.45;;
78013;SDS011;67222;50.182;8.734;2023-01-28T07:17:12;2.20;;;1.10;;
78013;SDS011;67222;50.182;8.734;2023-01-28T07:19:37;2.30;;;1.20;;
78013;SDS011;67222;50.182;8.734;2023-01-28T07:22:03;2.27;;;0.93;;
78013;SDS011;67222;50.182;8.734;2023-01-28T07:24:28;2.53;;;1.17;;
78013;SDS011;67222;50.182;8.734;2023-01-28T07:26:54;2.78;;;1.20;;
78013;SDS011;67222;50.182;8.734;2023-01-28T07:29:20;2.58;;;1.50;;
78013;SDS011;67222;50.182;8.734;2023-01-28T07:31:45;3.13;;;1.80;;
78013;SDS011;67222;50.182;8.734;2023-01-28T07:34:10;2.87;;;1.40;;
78013;SDS011;67222;50.182;8.734;2023-01-28T07:36:36;4.00;;;1.87;;
78013;SDS011;67222;50.182;8.734;2023-01-28T07:39:01;2.63;;;1.53;;
78013;SDS011;67222;50.182;8.734;2023-01-28T07:41:26;3.40;;;1.42;;
78013;SDS011;67222;50.182;8.734;2023-01-28T07:43:52;4.18;;;1.50;;
78013;SDS011;67222;50.182;8.734;2023-01-28T07:46:17;3.35;;;1.20;;
78013;SDS011;67222;50.182;8.734;2023-01-28T07:48:42;2.13;;;1.15;;
78013;SDS011;67222;50.182;8.734;2023-01-28T07:51:08;2.53;;;1.30;;
78013;SDS011;67222;50.182;8.734;2023-01-28T07:53:33;3.08;;;1.40;;
78013;SDS011;67222;50.182;8.734;2023-01-28T07:55:59;2.53;;;1.33;;
78013;SDS011;67222;50.182;8.734;2023-01-28T07:58:25;2.60;;;1.33;;
78013;SDS011;67222;50.182;8.734;2023-01-28T08:00:50;3.50;;;1.92;;
78013;SDS011;67222;50.182;8.734;2023-01-28T08:03:21;3.17;;;1.80;;
78013;SDS011;67222;50.182;8.734;2023-01-28T08:05:47;3.03;;;1.47;;
78013;SDS011;67222;50.182;8.734;2023-01-28T08:08:14;3.22;;;1.30;;
78013;SDS011;67222;50.182;8.734;2023-01-28T08:10:40;3.13;;;1.40;;
78013;SDS011;67222;50.182;8.734;2023-01-28T08:13:05;3.97;;;1.92;;
78013;SDS011;67222;50.182;8.734;2023-01-28T08:15:31;2.88;;;1.25;;
78013;SDS011;67222;50.182;8.734;2023-01-28T08:17:57;4.20;;;1.60;;
78013;SDS011;67222;50.182;8.734;2023-01-28T08:20:24;2.47;;;1.30;;
78013;SDS011;67222;50.182;8.734;2023-01-28T08:22:52;2.65;;;1.40;;
78013;SDS011;67222;50.182;8.734;2023-01-28T08:25:17;2.60;;;1.42;;
78013;SDS011;67222;50.182;8.734;2023-01-28T08:27:42;3.22;;;1.30;;
78013;SDS011;67222;50.182;8.734;2023-01-28T08:30:08;4.25;;;1.70;;
78013;SDS011;67222;50.182;8.734;2023-01-28T08:32:34;3.85;;;1.70;;
78013;SDS011;67222;50.182;8.734;2023-01-28T08:35:00;4.00;;;1.70;;
78013;SDS011;67222;50.182;8.734;2023-01-28T08:37:25;3.20;;;1.75;;
78013;SDS011;67222;50.182;8.734;2023-01-28T08:39:51;3.27;;;1.60;;
78013;SDS011;67222;50.182;8.734;2023-01-28T08:42:16;3.43;;;1.50;;
78013;SDS011;67222;50.182;8.734;2023-01-28T08:44:42;3.05;;;1.30;;
78013;SDS011;67222;50.182;8.734;2023-01-28T08:47:07;2.70;;;1.47;;
78013;SDS011;67222;50.182;8.734;2023-01-28T08:49:32;2.70;;;1.60;;
78013;SDS011;67222;50.182;8.734;2023-01-28T08:51:57;3.90;;;1.50;;
78013;SDS011;67222;50.182;8.734;2023-01-28T08:54:23;3.40;;;1.60;;
78013;SDS011;67222;50.182;8.734;2023-01-28T08:56:48;3.30;;;1.47;;
78013;SDS011;67222;50.182;8.734;2023-01-28T08:59:14;2.85;;;1.27;;
78013;SDS011;67222;50.182;8.734;2023-01-28T09:01:39;2.72;;;1.50;;
78013;SDS011;67222;50.182;8.734;2023-01-28T09:04:04;2.75;;;1.48;;
78013;SDS011;67222;50.182;8.734;2023-01-28T09:06:30;4.07;;;1.45;;
78013;SDS011;67222;50.182;8.734;2023-01-28T09:08:56;2.40;;;1.52;;
78013;SDS011;67222;50.182;8.734;2023-01-28T09:11:22;2.53;;;1.40;;
78013;SDS011;67222;50.182;8.734;2023-01-28T09:13:47;3.23;;;1.63;;
78013;SDS011;67222;50.182;8.734;2023-01-28T09:16:13;2.50;;;1.30;;
78013;SDS011;67222;50.182;8.734;2023-01-28T09:18:38;3.03;;;1.30;;
78013;SDS011;67222;50.182;8.734;2023-01-28T09:21:04;3.13;;;1.40;;
78013;SDS011;67222;50.182;8.734;2023-01-28T09:23:32;17.58;;;6.25;;
78013;SDS011;67222;50.182;8.734;2023-01-28T09:25:59;10.98;;;4.57;;
78013;SDS011;67222;50.182;8.734;2023-01-28T09:28:25;7.43;;;3.25;;
78013;SDS011;67222;50.182;8.734;2023-01-28T09:30:50;5.23;;;2.40;;
78013;SDS011;67222;50.182;8.734;2023-01-28T09:33:15;5.53;;;2.63;;
78013;SDS011;67222;50.182;8.734;2023-01-28T09:35:41;5.13;;;2.10;;
78013;SDS011;67222;50.182;8.734;2023-01-28T09:38:06;4.13;;;2.47;;
78013;SDS011;67222;50.182;8.734;2023-01-28T09:40:35;8.10;;;3.30;;
78013;SDS011;67222;50.182;8.734;2023-01-28T09:45:52;4.22;;;2.33;;
78013;SDS011;67222;50.182;8.734;2023-01-28T09:48:26;6.13;;;2.70;;
78013;SDS011;67222;50.182;8.734;2023-01-28T09:50:57;8.30;;;4.55;;
78013;SDS011;67222;50.182;8.734;2023-01-28T09:53:29;10.40;;;5.78;;
78013;SDS011;67222;50.182;8.734;2023-01-28T09:56:02;3.55;;;2.17;;
78013;SDS011;67222;50.182;8.734;2023-01-28T09:58:29;3.97;;;2.15;;
78013;SDS011;67222;50.182;8.734;2023-01-28T10:06:55;3.75;;;1.90;;
78013;SDS011;67222;50.182;8.734;2023-01-28T10:09:44;4.20;;;2.10;;
78013;SDS011;67222;50.182;8.734;2023-01-28T10:12:21;4.40;;;1.85;;
78013;SDS011;67222;50.182;8.734;2023-01-28T10:17:39;3.08;;;1.75;;
78013;SDS011;67222;50.182;8.734;2023-01-28T10:22:40;4.70;;;2.58;;
78013;SDS011;67222;50.182;8.734;2023-01-28T10:25:16;4.68;;;2.30;;
78013;SDS011;67222;50.182;8.734;2023-01-28T10:27:44;3.90;;;2.30;;
78013;SDS011;67222;50.182;8.734;2023-01-28T10:30:22;3.97;;;2.25;;
78013;SDS011;67222;50.182;8.734;2023-01-28T10:32:52;3.33;;;1.75;;
78013;SDS011;67222;50.182;8.734;2023-01-28T10:35:20;3.03;;;1.75;;
78013;SDS011;67222;50.182;8.734;2023-01-28T10:37:46;3.33;;;1.85;;
78013;SDS011;67222;50.182;8.734;2023-01-28T10:40:15;4.10;;;2.10;;
78013;SDS011;67222;50.182;8.734;2023-01-28T10:42:42;3.10;;;1.45;;
78013;SDS011;67222;50.182;8.734;2023-01-28T10:47:40;2.78;;;1.63;;
78013;SDS011;67222;50.182;8.734;2023-01-28T10:50:14;5.72;;;2.00;;
78013;SDS011;67222;50.182;8.734;2023-01-28T10:52:54;3.33;;;1.80;;
78013;SDS011;67222;50.182;8.734;2023-01-28T10:55:20;3.40;;;1.70;;
78013;SDS011;67222;50.182;8.734;2023-01-28T10:57:46;3.53;;;1.63;;
78013;SDS011;67222;50.182;8.734;2023-01-28T11:00:35;2.25;;;1.38;;
78013;SDS011;67222;50.182;8.734;2023-01-28T11:03:01;3.97;;;1.60;;
78013;SDS011;67222;50.182;8.734;2023-01-28T11:05:28;2.75;;;1.25;;
78013;SDS011;67222;50.182;8.734;2023-01-28T11:08:14;4.95;;;1.55;;
78013;SDS011;67222;50.182;8.734;2023-01-28T11:10:42;2.53;;;1.70;;
78013;SDS011;67222;50.182;8.734;2023-01-28T11:13:21;2.80;;;1.55;;
78013;SDS011;67222;50.182;8.734;2023-01-28T11:15:49;3.25;;;1.58;;
78013;SDS011;67222;50.182;8.734;2023-01-28T11:18:17;3.15;;;1.40;;
78013;SDS011;67222;50.182;8.734;2023-01-28T11:20:59;2.80;;;1.52;;
78013;SDS011;67222;50.182;8.734;2023-01-28T11:23:28;2.63;;;1.40;;
78013;SDS011;67222;50.182;8.734;2023-01-28T11:26:19;4.10;;;1.48;;
78013;SDS011;67222;50.182;8.734;2023-01-28T11:28:45;3.17;;;1.33;;
78013;SDS011;67222;50.182;8.734;2023-01-28T11:31:12;2.97;;;1.48;;
78013;SDS011;67222;50.182;8.734;2023-01-28T11:33:45;2.88;;;1.67;;
78013;SDS011;67222;50.182;8.734;2023-01-28T11:36:16;2.92;;;1.80;;
78013;SDS011;67222;50.182;8.734;2023-01-28T11:38:47;3.50;;;1.77;;
78013;SDS011;67222;50.182;8.734;2023-01-28T11:41:13;3.22;;;1.60;;
78013;SDS011;67222;50.182;8.734;2023-01-28T11:43:39;3.10;;;1.58;;
78013;SDS011;67222;50.182;8.734;2023-01-28T11:54:15;3.65;;;1.70;;
78013;SDS011;67222;50.182;8.734;2023-01-28T11:59:33;4.03;;;1.45;;
78013;SDS011;67222;50.182;8.734;2023-01-28T12:02:17;2.72;;;1.30;;
78013;SDS011;67222;50.182;8.734;2023-01-28T12:05:07;3.47;;;1.27;;
78013;SDS011;67222;50.182;8.734;2023-01-28T12:10:55;2.88;;;1.50;;
78013;SDS011;67222;50.182;8.734;2023-01-28T12:27:32;2.60;;;1.35;;
78013;SDS011;67222;50.182;8.734;2023-01-28T12:30:28;3.25;;;1.55;;
78013;SDS011;67222;50.182;8.734;2023-01-28T12:36:01;3.55;;;1.65;;
78013;SDS011;67222;50.182;8.734;2023-01-28T12:41:17;4.17;;;1.47;;
78013;SDS011;67222;50.182;8.734;2023-01-28T12:43:56;3.03;;;1.55;;
78013;SDS011;67222;50.182;8.734;2023-01-28T12:51:34;3.78;;;1.63;;
78013;SDS011;67222;50.182;8.734;2023-01-28T12:54:52;3.58;;;1.77;;
78013;SDS011;67222;50.182;8.734;2023-01-28T12:59:44;2.92;;;1.70;;
78013;SDS011;67222;50.182;8.734;2023-01-28T13:07:43;4.10;;;1.98;;
78013;SDS011;67222;50.182;8.734;2023-01-28T13:10:18;3.72;;;1.90;;
78013;SDS011;67222;50.182;8.734;2023-01-28T13:15:15;2.50;;;1.60;;
78013;SDS011;67222;50.182;8.734;2023-01-28T13:20:48;3.13;;;1.42;;
78013;SDS011;67222;50.182;8.734;2023-01-28T13:23:23;3.78;;;1.58;;
78013;SDS011;67222;50.182;8.734;2023-01-28T13:28:49;2.55;;;1.27;;
78013;SDS011;67222;50.182;8.734;2023-01-28T13:31:16;2.42;;;1.45;;
78013;SDS011;67222;50.182;8.734;2023-01-28T13:39:44;2.83;;;1.30;;
78013;SDS011;67222;50.182;8.734;2023-01-28T13:41:49;3.80;;;2.28;;
78013;SDS011;67222;50.182;8.734;2023-01-28T13:44:17;2.70;;;1.52;;
78013;SDS011;67222;50.182;8.734;2023-01-28T13:49:39;2.75;;;1.40;;
78013;SDS011;67222;50.182;8.734;2023-01-28T13:54:54;2.70;;;1.65;;
78013;SDS011;67222;50.182;8.734;2023-01-28T14:05:57;3.53;;;0.95;;
78013;SDS011;67222;50.182;8.734;2023-01-28T14:08:47;2.65;;;1.05;;
78013;SDS011;67222;50.182;8.734;2023-01-28T14:16:28;3.10;;;1.50;;
78013;SDS011;67222;50.182;8.734;2023-01-28T14:19:02;3.05;;;1.15;;
78013;SDS011;67222;50.182;8.734;2023-01-28T14:21:31;2.50;;;1.20;;
78013;SDS011;67222;50.182;8.734;2023-01-28T14:23:58;3.00;;;1.27;;
78013;SDS011;67222;50.182;8.734;2023-01-28T14:31:37;2.75;;;1.05;;
78013;SDS011;67222;50.182;8.734;2023-01-28T14:36:40;2.55;;;1.23;;
78013;SDS011;67222;50.182;8.734;2023-01-28T14:39:18;2.83;;;1.30;;
78013;SDS011;67222;50.182;8.734;2023-01-28T14:41:47;2.63;;;0.93;;
78013;SDS011;67222;50.182;8.734;2023-01-28T14:44:33;3.78;;;1.20;;
78013;SDS011;67222;50.182;8.734;2023-01-28T14:52:31;1.60;;;0.80;;
78013;SDS011;67222;50.182;8.734;2023-01-28T14:57:44;2.23;;;1.00;;
78013;SDS011;67222;50.182;8.734;2023-01-28T15:00:16;2.80;;;1.45;;
78013;SDS011;67222;50.182;8.734;2023-01-28T15:02:45;2.60;;;1.08;;
78013;SDS011;67222;50.182;8.734;2023-01-28T15:05:21;4.13;;;1.15;;
78013;SDS011;67222;50.182;8.734;2023-01-28T15:07:48;2.58;;;1.20;;
78013;SDS011;67222;50.182;8.734;2023-01-28T15:12:51;1.92;;;0.93;;
78013;SDS011;67222;50.182;8.734;2023-01-28T15:15:22;2.40;;;1.00;;
78013;SDS011;67222;50.182;8.734;2023-01-28T15:17:51;2.30;;;1.17;;
78013;SDS011;67222;50.182;8.734;2023-01-28T15:20:18;2.10;;;1.17;;
78013;SDS011;67222;50.182;8.734;2023-01-28T15:22:45;3.42;;;1.25;;
78013;SDS011;67222;50.182;8.734;2023-01-28T15:25:15;2.47;;;1.10;;
78013;SDS011;67222;50.182;8.734;2023-01-28T15:27:42;2.20;;;1.27;;
78013;SDS011;67222;50.182;8.734;2023-01-28T15:30:21;3.47;;;1.35;;
78013;SDS011;67222;50.182;8.734;2023-01-28T15:33:04;3.03;;;1.45;;
78013;SDS011;67222;50.182;8.734;2023-01-28T15:35:35;2.97;;;1.33;;
78013;SDS011;67222;50.182;8.734;2023-01-28T15:38:00;4.13;;;1.52;;
78013;SDS011;67222;50.182;8.734;2023-01-28T15:40:26;2.80;;;1.23;;
78013;SDS011;67222;50.182;8.734;2023-01-28T15:42:54;3.78;;;1.27;;
78013;SDS011;67222;50.182;8.734;2023-01-28T15:45:22;3.65;;;1.30;;
78013;SDS011;67222;50.182;8.734;2023-01-28T15:47:50;3.25;;;1.27;;
78013;SDS011;67222;50.182;8.734;2023-01-28T15:50:19;2.42;;;1.17;;
78013;SDS011;67222;50.182;8.734;2023-01-28T15:52:47;1.98;;;1.10;;
78013;SDS011;67222;50.182;8.734;2023-01-28T15:55:26;3.05;;;1.13;;
78013;SDS011;67222;50.182;8.734;2023-01-28T15:58:17;2.80;;;1.15;;
78013;SDS011;67222;50.182;8.734;2023-01-28T16:00:50;3.03;;;1.13;;
78013;SDS011;67222;50.182;8.734;2023-01-28T16:03:58;3.20;;;1.20;;
78013;SDS011;67222;50.182;8.734;2023-01-28T16:06:34;3.50;;;1.50;;
78013;SDS011;67222;50.182;8.734;2023-01-28T16:09:24;4.13;;;1.75;;
78013;SDS011;67222;50.182;8.734;2023-01-28T16:11:50;4.00;;;1.60;;
78013;SDS011;67222;50.182;8.734;2023-01-28T16:14:26;4.00;;;1.63;;
78013;SDS011;67222;50.182;8.734;2023-01-28T16:16:54;4.20;;;2.30;;
78013;SDS011;67222;50.182;8.734;2023-01-28T16:19:32;4.00;;;1.85;;
78013;SDS011;67222;50.182;8.734;2023-01-28T16:21:58;4.70;;;2.03;;
78013;SDS011;67222;50.182;8.734;2023-01-28T16:24:26;3.20;;;1.63;;
78013;SDS011;67222;50.182;8.734;2023-01-28T16:29:29;3.53;;;2.30;;
78013;SDS011;67222;50.182;8.734;2023-01-28T16:31:55;4.95;;;2.20;;
78013;SDS011;67222;50.182;8.734;2023-01-28T16:34:23;4.00;;;1.85;;
78013;SDS011;67222;50.182;8.734;2023-01-28T16:36:51;4.53;;;2.35;;
78013;SDS011;67222;50.182;8.734;2023-01-28T16:39:16;4.80;;;2.00;;
78013;SDS011;67222;50.182;8.734;2023-01-28T16:41:43;4.57;;;2.03;;
78013;SDS011;67222;50.182;8.734;2023-01-28T16:44:14;3.80;;;1.80;;
78013;SDS011;67222;50.182;8.734;2023-01-28T16:46:41;5.75;;;2.17;;
78013;SDS011;67222;50.182;8.734;2023-01-28T16:49:07;3.90;;;2.05;;
78013;SDS011;67222;50.182;8.734;2023-01-28T16:51:33;4.47;;;2.00;;
78013;SDS011;67222;50.182;8.734;2023-01-28T16:54:00;4.68;;;2.25;;
78013;SDS011;67222;50.182;8.734;2023-01-28T16:56:27;4.55;;;2.00;;
78013;SDS011;67222;50.182;8.734;2023-01-28T16:58:53;3.70;;;2.33;;
78013;SDS011;67222;50.182;8.734;2023-01-28T17:01:19;5.28;;;2.60;;
78013;SDS011;67222;50.182;8.734;2023-01-28T17:03:45;4.03;;;2.08;;
78013;SDS011;67222;50.182;8.734;2023-01-28T17:06:12;4.67;;;2.30;;
78013;SDS011;67222;50.182;8.734;2023-01-28T17:08:40;5.30;;;2.53;;
78013;SDS011;67222;50.182;8.734;2023-01-28T17:11:05;5.83;;;2.93;;
78013;SDS011;67222;50.182;8.734;2023-01-28T17:13:31;6.70;;;3.10;;
78013;SDS011;67222;50.182;8.734;2023-01-28T17:15:59;5.05;;;2.72;;
78013;SDS011;67222;50.182;8.734;2023-01-28T17:18:26;6.30;;;3.30;;
78013;SDS011;67222;50.182;8.734;2023-01-28T17:20:52;5.68;;;3.40;;
78013;SDS011;67222;50.182;8.734;2023-01-28T17:23:17;5.87;;;2.93;;
78013;SDS011;67222;50.182;8.734;2023-01-28T17:25:46;4.55;;;2.65;;
78013;SDS011;67222;50.182;8.734;2023-01-28T17:28:12;6.38;;;2.38;;
78013;SDS011;67222;50.182;8.734;2023-01-28T17:30:39;3.83;;;2.50;;
78013;SDS011;67222;50.182;8.734;2023-01-28T17:33:04;4.13;;;2.10;;
78013;SDS011;67222;50.182;8.734;2023-01-28T17:35:30;3.90;;;2.38;;
78013;SDS011;67222;50.182;8.734;2023-01-28T17:37:55;4.82;;;2.35;;
78013;SDS011;67222;50.182;8.734;2023-01-28T17:40:21;4.93;;;2.13;;
78013;SDS011;67222;50.182;8.734;2023-01-28T17:42:46;4.03;;;2.30;;
78013;SDS011;67222;50.182;8.734;2023-01-28T17:45:12;3.90;;;1.80;;
78013;SDS011;67222;50.182;8.734;2023-01-28T17:47:37;5.82;;;2.67;;
78013;SDS011;67222;50.182;8.734;2023-01-28T17:50:03;4.17;;;2.30;;
78013;SDS011;67222;50.182;8.734;2023-01-28T17:52:29;5.50;;;2.47;;
78013;SDS011;67222;50.182;8.734;2023-01-28T17:54:55;4.55;;;2.63;;
78013;SDS011;67222;50.182;8.734;2023-01-28T17:57:20;4.33;;;2.40;;
78013;SDS011;67222;50.182;8.734;2023-01-28T17:59:46;4.78;;;2.58;;
78013;SDS011;67222;50.182;8.734;2023-01-28T18:02:12;6.45;;;3.25;;
78013;SDS011;67222;50.182;8.734;2023-01-28T18:04:38;6.35;;;3.20;;
78013;SDS011;67222;50.182;8.734;2023-01-28T18:07:05;6.70;;;2.97;;
78013;SDS011;67222;50.182;8.734;2023-01-28T18:09:35;4.55;;;2.60;;
78013;SDS011;67222;50.182;8.734;2023-01-28T18:12:04;6.10;;;2.65;;
78013;SDS011;67222;50.182;8.734;2023-01-28T18:14:31;5.35;;;2.58;;
78013;SDS011;67222;50.182;8.734;2023-01-28T18:16:57;4.50;;;2.53;;
78013;SDS011;67222;50.182;8.734;2023-01-28T18:19:22;5.20;;;2.60;;
78013;SDS011;67222;50.182;8.734;2023-01-28T18:21:47;5.40;;;3.22;;
78013;SDS011;67222;50.182;8.734;2023-01-28T18:24:12;5.53;;;2.40;;
78013;SDS011;67222;50.182;8.734;2023-01-28T18:26:38;4.72;;;2.85;;
78013;SDS011;67222;50.182;8.734;2023-01-28T18:29:03;5.15;;;2.58;;
78013;SDS011;67222;50.182;8.734;2023-01-28T18:31:29;4.50;;;2.60;;
78013;SDS011;67222;50.182;8.734;2023-01-28T18:33:54;6.70;;;3.00;;
78013;SDS011;67222;50.182;8.734;2023-01-28T18:36:21;5.03;;;2.67;;
78013;SDS011;67222;50.182;8.734;2023-01-28T18:38:46;6.50;;;3.10;;
78013;SDS011;67222;50.182;8.734;2023-01-28T18:41:12;5.70;;;2.67;;
78013;SDS011;67222;50.182;8.734;2023-01-28T18:43:38;3.90;;;2.28;;
78013;SDS011;67222;50.182;8.734;2023-01-28T18:46:11;4.07;;;2.65;;
78013;SDS011;67222;50.182;8.734;2023-01-28T18:48:37;4.28;;;2.60;;
78013;SDS011;67222;50.182;8.734;2023-01-28T18:51:03;4.00;;;2.67;;
78013;SDS011;67222;50.182;8.734;2023-01-28T18:53:29;4.80;;;2.60;;
78013;SDS011;67222;50.182;8.734;2023-01-28T18:55:55;5.22;;;2.97;;
78013;SDS011;67222;50.182;8.734;2023-01-28T18:58:24;4.28;;;2.35;;
78013;SDS011;67222;50.182;8.734;2023-01-28T19:00:49;7.00;;;3.00;;
78013;SDS011;67222;50.182;8.734;2023-01-28T19:03:15;4.37;;;2.20;;
78013;SDS011;67222;50.182;8.734;2023-01-28T19:05:40;7.07;;;3.10;;
78013;SDS011;67222;50.182;8.734;2023-01-28T19:08:06;7.32;;;3.03;;
78013;SDS011;67222;50.182;8.734;2023-01-28T19:10:33;5.45;;;2.65;;
78013;SDS011;67222;50.182;8.734;2023-01-28T19:12:59;6.30;;;3.35;;
78013;SDS011;67222;50.182;8.734;2023-01-28T19:15:24;7.90;;;3.63;;
78013;SDS011;67222;50.182;8.734;2023-01-28T19:17:49;5.45;;;3.10;;
78013;SDS011;67222;50.182;8.734;2023-01-28T19:20:15;7.17;;;3.80;;
78013;SDS011;67222;50.182;8.734;2023-01-28T19:22:40;6.25;;;3.45;;
78013;SDS011;67222;50.182;8.734;2023-01-28T19:25:06;9.32;;;4.13;;
78013;SDS011;67222;50.182;8.734;2023-01-28T19:27:32;5.07;;;2.85;;
78013;SDS011;67222;50.182;8.734;2023-01-28T19:29:57;5.00;;;2.90;;
78013;SDS011;67222;50.182;8.734;2023-01-28T19:32:23;4.83;;;2.67;;
78013;SDS011;67222;50.182;8.734;2023-01-28T19:34:48;5.53;;;2.63;;
78013;SDS011;67222;50.182;8.734;2023-01-28T19:37:13;6.93;;;3.00;;
78013;SDS011;67222;50.182;8.734;2023-01-28T19:39:39;5.40;;;2.75;;
78013;SDS011;67222;50.182;8.734;2023-01-28T19:42:05;4.70;;;2.95;;
78013;SDS011;67222;50.182;8.734;2023-01-28T19:44:30;6.10;;;2.97;;
78013;SDS011;67222;50.182;8.734;2023-01-28T19:46:56;4.40;;;2.28;;
78013;SDS011;67222;50.182;8.734;2023-01-28T19:49:22;5.63;;;2.88;;
78013;SDS011;67222;50.182;8.734;2023-01-28T19:51:47;9.07;;;3.83;;
78013;SDS011;67222;50.182;8.734;2023-01-28T19:54:12;5.55;;;3.17;;
78013;SDS011;67222;50.182;8.734;2023-01-28T19:56:38;6.28;;;3.42;;
78013;SDS011;67222;50.182;8.734;2023-01-28T19:59:03;6.45;;;3.03;;
78013;SDS011;67222;50.182;8.734;2023-01-28T20:01:29;5.80;;;2.92;;
78013;SDS011;67222;50.182;8.734;2023-01-28T20:03:55;6.78;;;3.17;;
78013;SDS011;67222;50.182;8.734;2023-01-28T20:06:23;6.53;;;3.33;;
78013;SDS011;67222;50.182;8.734;2023-01-28T20:08:52;6.88;;;3.50;;
78013;SDS011;67222;50.182;8.734;2023-01-28T20:11:20;6.30;;;3.65;;
78013;SDS011;67222;50.182;8.734;2023-01-28T20:13:47;5.78;;;3.17;;
78013;SDS011;67222;50.182;8.734;2023-01-28T20:18:52;5.22;;;3.10;;
78013;SDS011;67222;50.182;8.734;2023-01-28T20:21:19;6.05;;;3.03;;
78013;SDS011;67222;50.182;8.734;2023-01-28T20:23:46;7.07;;;3.38;;
78013;SDS011;67222;50.182;8.734;2023-01-28T20:26:12;5.53;;;2.95;;
78013;SDS011;67222;50.182;8.734;2023-01-28T20:28:38;6.40;;;3.33;;
78013;SDS011;67222;50.182;8.734;2023-01-28T20:31:04;5.53;;;2.88;;
78013;SDS011;67222;50.182;8.734;2023-01-28T20:33:30;5.97;;;3.10;;
78013;SDS011;67222;50.182;8.734;2023-01-28T20:36:00;5.00;;;3.30;;
78013;SDS011;67222;50.182;8.734;2023-01-28T20:38:26;5.10;;;2.50;;
78013;SDS011;67222;50.182;8.734;2023-01-28T20:40:51;6.25;;;3.17;;
78013;SDS011;67222;50.182;8.734;2023-01-28T20:43:16;5.03;;;2.90;;
78013;SDS011;67222;50.182;8.734;2023-01-28T20:45:42;3.83;;;2.53;;
78013;SDS011;67222;50.182;8.734;2023-01-28T20:48:07;4.43;;;2.23;;
78013;SDS011;67222;50.182;8.734;2023-01-28T20:50:33;6.83;;;3.10;;
78013;SDS011;67222;50.182;8.734;2023-01-28T20:52:59;5.78;;;2.80;;
78013;SDS011;67222;50.182;8.734;2023-01-28T20:55:24;6.80;;;3.10;;
78013;SDS011;67222;50.182;8.734;2023-01-28T20:57:50;6.37;;;3.10;;
78013;SDS011;67222;50.182;8.734;2023-01-28T21:00:16;6.00;;;3.25;;
78013;SDS011;67222;50.182;8.734;2023-01-28T21:02:42;5.38;;;3.50;;
78013;SDS011;67222;50.182;8.734;2023-01-28T21:05:09;5.30;;;2.78;;
78013;SDS011;67222;50.182;8.734;2023-01-28T21:07:34;5.93;;;3.30;;
78013;SDS011;67222;50.182;8.734;2023-01-28T21:10:00;5.47;;;2.70;;
78013;SDS011;67222;50.182;8.734;2023-01-28T21:12:25;5.25;;;2.38;;
78013;SDS011;67222;50.182;8.734;2023-01-28T21:14:53;5.82;;;2.83;;
78013;SDS011;67222;50.182;8.734;2023-01-28T21:17:19;4.80;;;3.00;;
78013;SDS011;67222;50.182;8.734;2023-01-28T21:19:44;6.37;;;3.33;;
78013;SDS011;67222;50.182;8.734;2023-01-28T21:22:09;5.60;;;3.20;;
78013;SDS011;67222;50.182;8.734;2023-01-28T21:24:34;4.97;;;2.80;;
78013;SDS011;67222;50.182;8.734;2023-01-28T21:27:00;6.10;;;3.03;;
78013;SDS011;67222;50.182;8.734;2023-01-28T21:29:25;6.43;;;3.47;;
78013;SDS011;67222;50.182;8.734;2023-01-28T21:31:50;5.23;;;2.80;;
78013;SDS011;67222;50.182;8.734;2023-01-28T21:34:16;5.57;;;3.13;;
78013;SDS011;67222;50.182;8.734;2023-01-28T21:36:41;5.05;;;3.10;;
78013;SDS011;67222;50.182;8.734;2023-01-28T21:39:07;6.22;;;3.30;;
78013;SDS011;67222;50.182;8.734;2023-01-28T21:41:33;6.30;;;3.63;;
78013;SDS011;67222;50.182;8.734;2023-01-28T21:43:58;7.22;;;2.95;;
78013;SDS011;67222;50.182;8.734;2023-01-28T21:46:24;5.72;;;3.13;;
78013;SDS011;67222;50.182;8.734;2023-01-28T21:48:56;5.78;;;3.30;;
78013;SDS011;67222;50.182;8.734;2023-01-28T21:51:25;4.50;;;2.78;;
78013;SDS011;67222;50.182;8.734;2023-01-28T21:54:02;8.07;;;3.50;;
78013;SDS011;67222;50.182;8.734;2023-01-28T21:56:28;4.65;;;2.75;;
78013;SDS011;67222;50.182;8.734;2023-01-28T21:58:53;5.23;;;3.43;;
78013;SDS011;67222;50.182;8.734;2023-01-28T22:01:37;4.85;;;3.15;;
78013;SDS011;67222;50.182;8.734;2023-01-28T22:04:02;5.22;;;3.28;;
78013;SDS011;67222;50.182;8.734;2023-01-28T22:06:28;5.40;;;3.45;;
78013;SDS011;67222;50.182;8.734;2023-01-28T22:08:53;6.18;;;3.25;;
78013;SDS011;67222;50.182;8.734;2023-01-28T22:11:19;5.32;;;3.45;;
78013;SDS011;67222;50.182;8.734;2023-01-28T22:13:44;5.47;;;3.42;;
78013;SDS011;67222;50.182;8.734;2023-01-28T22:16:10;5.63;;;3.20;;
78013;SDS011;67222;50.182;8.734;2023-01-28T22:18:35;5.82;;;3.58;;
78013;SDS011;67222;50.182;8.734;2023-01-28T22:21:05;6.03;;;3.47;;
78013;SDS011;67222;50.182;8.734;2023-01-28T22:23:32;5.80;;;3.42;;
78013;SDS011;67222;50.182;8.734;2023-01-28T22:25:58;6.07;;;3.30;;
78013;SDS011;67222;50.182;8.734;2023-01-28T22:28:24;5.75;;;3.10;;
78013;SDS011;67222;50.182;8.734;2023-01-28T22:30:51;4.78;;;3.30;;
78013;SDS011;67222;50.182;8.734;2023-01-28T22:33:17;4.95;;;2.85;;
78013;SDS011;67222;50.182;8.734;2023-01-28T22:35:42;4.25;;;2.60;;
78013;SDS011;67222;50.182;8.734;2023-01-28T22:38:08;4.55;;;2.70;;
78013;SDS011;67222;50.182;8.734;2023-01-28T22:40:33;6.05;;;3.10;;
78013;SDS011;67222;50.182;8.734;2023-01-28T22:42:59;5.57;;;3.22;;
78013;SDS011;67222;50.182;8.734;2023-01-28T22:45:25;4.97;;;3.17;;
78013;SDS011;67222;50.182;8.734;2023-01-28T22:47:50;5.30;;;3.00;;
78013;SDS011;67222;50.182;8.734;2023-01-28T22:50:15;4.80;;;3.07;;
78013;SDS011;67222;50.182;8.734;2023-01-28T22:52:41;5.13;;;3.10;;
78013;SDS011;67222;50.182;8.734;2023-01-28T22:55:06;4.80;;;2.60;;
78013;SDS011;67222;50.182;8.734;2023-01-28T22:57:32;4.55;;;2.92;;
78013;SDS011;67222;50.182;8.734;2023-01-28T22:59:57;5.67;;;3.40;;
